createdAt,value
2019-02-16T00:02:09.636Z,11.43
2019-02-16T00:04:37.484Z,11.00
2019-02-16T00:07:04.390Z,10.47
2019-02-16T00:09:31.912Z,10.97
2019-02-16T00:11:59.059Z,10.67
2019-02-16T00:14:26.419Z,10.47
2019-02-16T00:16:53.565Z,9.97
2019-02-16T00:19:20.738Z,10.80
2019-02-16T00:21:48.293Z,10.00
2019-02-16T00:24:15.216Z,10.13
2019-02-16T00:26:42.215Z,11.07
2019-02-16T00:29:09.444Z,10.17
2019-02-16T00:31:36.384Z,10.50
2019-02-16T00:34:03.707Z,11.77
2019-02-16T00:36:30.948Z,10.47
2019-02-16T00:38:58.132Z,10.93
2019-02-16T00:41:25.414Z,10.13
2019-02-16T00:44:09.751Z,10.93
2019-02-16T00:46:37.489Z,11.00
2019-02-16T00:49:04.759Z,10.17
2019-02-16T00:51:32.311Z,11.37
2019-02-16T00:53:59.812Z,10.37
2019-02-16T00:56:27.500Z,10.23
2019-02-16T00:58:54.674Z,10.20
2019-02-16T01:01:22.804Z,10.73
2019-02-16T01:03:49.802Z,10.67
2019-02-16T01:06:17.001Z,10.17
2019-02-16T01:08:44.571Z,11.40
2019-02-16T01:11:12.261Z,12.00
2019-02-16T01:13:39.146Z,11.10
2019-02-16T01:16:06.805Z,10.50
2019-02-16T01:18:34.437Z,10.83
2019-02-16T01:21:02.714Z,10.60
2019-02-16T01:23:30.598Z,10.10
2019-02-16T01:25:57.859Z,11.20
2019-02-16T01:28:25.408Z,11.30
2019-02-16T01:30:52.720Z,10.40
2019-02-16T01:33:20.621Z,10.97
2019-02-16T01:35:47.789Z,11.07
2019-02-16T01:38:15.945Z,11.10
2019-02-16T01:40:43.448Z,10.83
2019-02-16T01:43:11.568Z,10.73
2019-02-16T01:45:38.855Z,10.73
2019-02-16T01:48:06.284Z,10.80
2019-02-16T01:50:33.908Z,10.00
2019-02-16T01:53:01.565Z,10.67
2019-02-16T01:55:29.054Z,10.87
2019-02-16T01:57:56.420Z,9.90
2019-02-16T02:00:24.103Z,10.73
2019-02-16T02:02:51.638Z,10.37
2019-02-16T02:05:18.847Z,10.13
2019-02-16T02:07:46.072Z,10.70
2019-02-16T02:10:13.099Z,10.60
2019-02-16T02:12:41.269Z,10.43
2019-02-16T02:15:08.699Z,9.70
2019-02-16T02:17:35.870Z,10.87
2019-02-16T02:20:03.953Z,11.70
2019-02-16T02:22:31.172Z,10.87
2019-02-16T02:24:59.059Z,11.73
2019-02-16T02:27:26.515Z,11.20
2019-02-16T02:29:53.791Z,11.03
2019-02-16T02:32:21.657Z,10.93
2019-02-16T02:34:48.617Z,12.07
2019-02-16T02:37:15.760Z,10.50
2019-02-16T02:39:43.142Z,11.33
2019-02-16T02:42:10.558Z,11.33
2019-02-16T02:44:37.684Z,12.10
2019-02-16T02:47:04.957Z,11.57
2019-02-16T02:49:32.139Z,13.60
2019-02-16T02:51:59.648Z,11.40
2019-02-16T02:54:27.249Z,12.30
2019-02-16T02:56:55.105Z,12.80
2019-02-16T02:59:23.393Z,13.03
2019-02-16T03:01:51.141Z,12.30
2019-02-16T03:04:18.496Z,13.03
2019-02-16T03:06:46.471Z,12.20
2019-02-16T03:09:13.933Z,12.43
2019-02-16T03:11:41.971Z,11.28
2019-02-16T03:14:09.251Z,12.28
2019-02-16T03:16:36.543Z,13.98
2019-02-16T03:19:03.947Z,12.10
2019-02-16T03:21:31.632Z,11.30
2019-02-16T03:23:59.484Z,12.90
2019-02-16T03:26:49.298Z,12.13
2019-02-16T03:29:29.261Z,12.85
2019-02-16T03:32:41.562Z,13.33
2019-02-16T03:35:47.282Z,12.93
2019-02-16T03:38:33.474Z,13.28
2019-02-16T03:41:00.405Z,13.70
2019-02-16T03:43:27.932Z,14.00
2019-02-16T03:45:55.152Z,15.40
2019-02-16T03:48:22.703Z,14.98
2019-02-16T03:50:49.848Z,15.55
2019-02-16T03:53:17.813Z,15.45
2019-02-16T03:55:45.256Z,14.20
2019-02-16T03:58:12.834Z,14.28
2019-02-16T04:00:40.504Z,15.40
2019-02-16T04:03:08.054Z,14.43
2019-02-16T04:05:35.670Z,15.25
2019-02-16T04:08:03.328Z,14.63
2019-02-16T04:10:30.516Z,14.53
2019-02-16T04:12:57.433Z,13.40
2019-02-16T04:15:24.631Z,13.35
2019-02-16T04:17:52.512Z,13.77
2019-02-16T04:20:19.703Z,13.53
2019-02-16T04:22:47.250Z,14.15
2019-02-16T04:25:14.471Z,14.00
2019-02-16T04:27:42.014Z,14.07
2019-02-16T04:30:09.361Z,12.85
2019-02-16T04:32:36.967Z,14.47
2019-02-16T04:35:04.571Z,13.83
2019-02-16T04:37:31.835Z,13.78
2019-02-16T04:39:58.783Z,14.53
2019-02-16T04:42:25.760Z,13.58
2019-02-16T04:44:53.281Z,12.93
2019-02-16T04:47:20.321Z,13.95
2019-02-16T04:49:47.573Z,13.60
2019-02-16T04:52:14.700Z,14.35
2019-02-16T04:54:42.053Z,14.60
2019-02-16T04:57:09.752Z,14.07
2019-02-16T04:59:37.505Z,14.90
2019-02-16T05:02:04.574Z,15.25
2019-02-16T05:04:31.829Z,16.93
2019-02-16T05:06:59.210Z,16.00
2019-02-16T05:09:27.669Z,14.75
2019-02-16T05:11:55.049Z,15.78
2019-02-16T05:14:22.088Z,16.17
2019-02-16T05:16:49.035Z,16.45
2019-02-16T05:19:16.584Z,18.62
2019-02-16T05:21:44.105Z,20.37
2019-02-16T05:24:11.901Z,18.05
2019-02-16T05:26:39.852Z,16.35
2019-02-16T05:29:07.481Z,16.07
2019-02-16T05:31:34.994Z,15.45
2019-02-16T05:34:02.550Z,15.18
2019-02-16T05:36:30.004Z,13.13
2019-02-16T05:38:57.716Z,13.80
2019-02-16T05:41:26.033Z,14.18
2019-02-16T05:43:53.295Z,13.45
2019-02-16T05:46:20.877Z,13.80
2019-02-16T05:48:48.929Z,14.00
2019-02-16T05:51:16.391Z,14.30
2019-02-16T05:53:43.856Z,14.10
2019-02-16T05:56:13.125Z,15.68
2019-02-16T05:58:40.395Z,15.55
2019-02-16T06:01:07.652Z,16.45
2019-02-16T06:03:34.601Z,15.48
2019-02-16T06:06:01.811Z,15.88
2019-02-16T06:08:29.242Z,17.20
2019-02-16T06:10:56.185Z,17.20
2019-02-16T06:13:23.113Z,16.52
2019-02-16T06:15:51.977Z,16.52
2019-02-16T06:18:20.281Z,15.55
2019-02-16T06:20:47.456Z,16.48
2019-02-16T06:23:14.486Z,15.95
2019-02-16T06:25:41.656Z,15.43
2019-02-16T06:28:09.169Z,15.70
2019-02-16T06:30:36.697Z,14.93
2019-02-16T06:33:04.081Z,15.68
2019-02-16T06:35:35.955Z,13.80
2019-02-16T06:38:03.317Z,15.32
2019-02-16T06:40:31.118Z,16.05
2019-02-16T06:42:58.318Z,16.27
2019-02-16T06:45:25.828Z,15.40
2019-02-16T06:47:53.447Z,15.40
2019-02-16T06:50:20.810Z,15.80
2019-02-16T06:52:48.484Z,18.70
2019-02-16T06:55:15.635Z,18.92
2019-02-16T06:57:46.588Z,17.65
2019-02-16T07:00:15.028Z,18.77
2019-02-16T07:02:43.233Z,17.40
2019-02-16T07:05:10.558Z,16.23
2019-02-16T07:07:38.085Z,17.10
2019-02-16T07:10:05.972Z,17.00
2019-02-16T07:12:33.856Z,16.97
2019-02-16T07:15:01.131Z,16.37
2019-02-16T07:17:51.030Z,16.90
2019-02-16T07:20:19.684Z,16.10
2019-02-16T07:22:46.924Z,16.23
2019-02-16T07:25:14.791Z,16.37
2019-02-16T07:27:42.281Z,16.85
2019-02-16T07:30:09.811Z,16.97
2019-02-16T07:32:37.078Z,16.45
2019-02-16T07:35:04.853Z,17.10
2019-02-16T07:37:32.607Z,16.48
2019-02-16T07:40:01.254Z,18.57
2019-02-16T07:42:46.795Z,18.00
2019-02-16T07:45:39.198Z,18.60
2019-02-16T07:48:12.556Z,17.57
2019-02-16T07:50:53.005Z,18.10
2019-02-16T07:53:38.335Z,18.42
2019-02-16T07:56:14.116Z,19.02
2019-02-16T07:59:03.988Z,19.20
2019-02-16T08:01:40.453Z,19.32
2019-02-16T08:04:13.381Z,18.53
2019-02-16T08:06:47.336Z,19.12
2019-02-16T08:09:30.365Z,19.10
2019-02-16T08:12:05.804Z,16.80
2019-02-16T08:14:53.136Z,17.40
2019-02-16T08:17:38.665Z,17.82
2019-02-16T08:20:17.336Z,16.60
2019-02-16T08:23:19.312Z,16.02
2019-02-16T08:26:18.708Z,16.70
2019-02-16T08:29:04.166Z,15.87
2019-02-16T08:31:37.687Z,14.70
2019-02-16T08:34:15.933Z,15.10
2019-02-16T08:36:51.064Z,14.77
2019-02-16T08:39:36.696Z,15.63
2019-02-16T08:42:15.341Z,15.27
2019-02-16T08:45:02.580Z,14.53
2019-02-16T08:47:39.226Z,15.07
2019-02-16T08:50:24.828Z,14.43
2019-02-16T08:53:05.988Z,14.47
2019-02-16T08:56:08.473Z,15.47
2019-02-16T08:58:42.263Z,14.60
2019-02-16T09:01:23.762Z,14.53
2019-02-16T09:04:09.368Z,14.63
2019-02-16T09:07:08.280Z,14.33
2019-02-16T09:10:07.345Z,15.43
2019-02-16T09:12:53.104Z,13.50
2019-02-16T09:15:38.893Z,15.67
2019-02-16T09:18:38.331Z,15.10
2019-02-16T09:21:37.417Z,15.67
2019-02-16T09:24:14.102Z,15.30
2019-02-16T09:27:00.457Z,16.10
2019-02-16T09:29:44.765Z,15.83
2019-02-16T09:32:24.509Z,15.53
2019-02-16T09:35:11.512Z,16.13
2019-02-16T09:37:48.382Z,16.63
2019-02-16T09:40:41.867Z,15.53
2019-02-16T09:43:18.005Z,15.90
2019-02-16T09:45:52.140Z,16.23
2019-02-16T09:48:44.928Z,17.07
2019-02-16T09:51:31.696Z,17.30
2019-02-16T09:54:13.375Z,16.70
2019-02-16T09:56:51.357Z,17.40
2019-02-16T09:59:34.920Z,17.47
2019-02-16T10:02:18.727Z,16.43
2019-02-16T10:05:04.073Z,16.97
2019-02-16T10:07:59.680Z,17.47
2019-02-16T10:10:36.989Z,16.93
2019-02-16T10:13:14.413Z,16.40
2019-02-16T10:15:55.013Z,16.67
2019-02-16T10:18:41.829Z,17.33
2019-02-16T10:21:27.466Z,16.43
2019-02-16T10:24:02.309Z,16.50
2019-02-16T10:26:55.915Z,16.77
2019-02-16T10:29:40.599Z,15.70
2019-02-16T10:32:43.148Z,15.60
2019-02-16T10:35:33.058Z,15.77
2019-02-16T10:38:15.460Z,16.73
2019-02-16T10:40:55.084Z,16.23
2019-02-16T10:43:34.318Z,17.03
2019-02-16T10:46:25.771Z,16.40
2019-02-16T10:49:07.055Z,16.07
2019-02-16T10:52:02.876Z,17.17
2019-02-16T10:54:36.079Z,16.30
2019-02-16T10:57:10.421Z,16.43
2019-02-16T10:59:56.128Z,16.40
2019-02-16T11:02:52.079Z,16.50
2019-02-16T11:05:25.565Z,17.20
2019-02-16T11:07:58.969Z,17.03
2019-02-16T11:10:36.657Z,16.50
2019-02-16T11:13:20.200Z,16.93
2019-02-16T11:15:56.981Z,17.80
2019-02-16T11:18:43.929Z,16.60
2019-02-16T11:21:22.121Z,16.77
2019-02-16T11:23:59.931Z,16.17
2019-02-16T11:26:35.497Z,16.70
2019-02-16T11:29:34.869Z,16.50
2019-02-16T11:32:08.757Z,15.67
2019-02-16T11:34:58.213Z,17.00
2019-02-16T11:37:43.704Z,16.27
2019-02-16T11:40:16.678Z,16.20
2019-02-16T11:42:59.322Z,16.50
2019-02-16T11:45:43.285Z,17.57
2019-02-16T11:48:18.801Z,17.27
2019-02-16T11:50:51.146Z,16.17
2019-02-16T11:53:28.976Z,16.83
2019-02-16T11:56:02.985Z,16.60
2019-02-16T11:58:51.378Z,15.90
2019-02-16T12:01:40.637Z,15.93
2019-02-16T12:04:21.756Z,16.80
2019-02-16T12:06:56.140Z,16.23
2019-02-16T12:09:36.131Z,17.17
2019-02-16T12:12:12.075Z,16.43
2019-02-16T12:15:04.705Z,15.33
2019-02-16T12:17:43.690Z,16.93
2019-02-16T12:20:36.086Z,17.03
2019-02-16T12:23:10.132Z,16.17
2019-02-16T12:26:14.864Z,16.37
2019-02-16T12:29:02.018Z,16.90
2019-02-16T12:31:47.598Z,16.97
2019-02-16T12:34:25.783Z,15.93
2019-02-16T12:37:01.519Z,15.90
2019-02-16T12:39:51.462Z,15.47
2019-02-16T12:42:38.332Z,16.07
2019-02-16T12:45:21.554Z,15.90
2019-02-16T12:47:57.148Z,16.90
2019-02-16T12:50:30.436Z,17.07
2019-02-16T12:53:17.024Z,16.90
2019-02-16T12:56:35.299Z,17.53
2019-02-16T12:59:28.206Z,17.10
2019-02-16T13:02:15.132Z,18.23
2019-02-16T13:05:20.569Z,17.33
2019-02-16T13:07:52.845Z,17.27
2019-02-16T13:10:54.608Z,17.43
2019-02-16T13:13:37.250Z,17.13
2019-02-16T13:16:27.854Z,17.50
2019-02-16T13:19:04.234Z,17.00
2019-02-16T13:21:38.741Z,17.20
2019-02-16T13:24:18.084Z,17.97
2019-02-16T13:27:07.889Z,17.47
2019-02-16T13:29:44.262Z,18.43
2019-02-16T13:32:33.803Z,16.87
2019-02-16T13:35:21.184Z,17.97
2019-02-16T13:38:04.776Z,17.97
2019-02-16T13:40:37.186Z,18.80
2019-02-16T13:43:23.094Z,17.13
2019-02-16T13:45:56.608Z,17.20
2019-02-16T13:48:28.839Z,17.00
2019-02-16T13:51:21.345Z,18.00
2019-02-16T13:54:14.816Z,16.53
2019-02-16T13:57:13.551Z,16.53
2019-02-16T13:59:57.953Z,17.10
2019-02-16T14:02:43.904Z,17.63
2019-02-16T14:05:22.628Z,17.67
2019-02-16T14:08:08.113Z,18.33
2019-02-16T14:10:42.087Z,18.27
2019-02-16T14:13:31.526Z,17.33
2019-02-16T14:16:10.246Z,17.03
2019-02-16T14:18:37.433Z,17.53
2019-02-16T14:21:04.934Z,16.47
2019-02-16T14:23:32.017Z,17.90
2019-02-16T14:26:00.167Z,18.00
2019-02-16T14:28:27.181Z,16.77
2019-02-16T14:30:54.483Z,16.57
2019-02-16T14:33:21.825Z,17.33
2019-02-16T14:35:50.656Z,17.10
2019-02-16T14:38:40.013Z,17.83
2019-02-16T14:41:07.621Z,17.53
2019-02-16T14:43:35.192Z,16.70
2019-02-16T14:46:02.590Z,17.73
2019-02-16T14:48:31.233Z,16.57
2019-02-16T14:50:58.840Z,17.40
2019-02-16T14:53:27.348Z,16.80
2019-02-16T14:55:54.953Z,17.97
2019-02-16T14:58:22.583Z,16.87
2019-02-16T15:00:49.649Z,16.90
2019-02-16T15:03:17.396Z,16.97
2019-02-16T15:05:44.908Z,17.20
2019-02-16T15:08:12.728Z,16.53
2019-02-16T15:10:39.926Z,16.30
2019-02-16T15:13:08.284Z,17.10
2019-02-16T15:15:35.531Z,16.60
2019-02-16T15:18:03.872Z,15.83
2019-02-16T15:20:31.004Z,15.50
2019-02-16T15:22:58.600Z,15.60
2019-02-16T15:25:26.093Z,16.07
2019-02-16T15:27:53.830Z,17.43
2019-02-16T15:30:21.344Z,17.90
2019-02-16T15:32:49.320Z,17.20
2019-02-16T15:35:17.116Z,16.97
2019-02-16T15:37:44.241Z,16.07
2019-02-16T15:40:11.261Z,16.40
2019-02-16T15:42:38.487Z,16.23
2019-02-16T15:45:08.624Z,15.80
2019-02-16T15:47:35.905Z,15.53
2019-02-16T15:50:03.498Z,15.37
2019-02-16T15:52:31.834Z,14.17
2019-02-16T15:54:59.269Z,14.43
2019-02-16T15:57:27.419Z,14.83
2019-02-16T15:59:55.186Z,14.37
2019-02-16T16:02:22.381Z,13.90
2019-02-16T16:04:49.353Z,13.87
2019-02-16T16:07:17.048Z,13.77
2019-02-16T16:09:53.201Z,14.10
2019-02-16T16:12:37.905Z,14.50
2019-02-16T16:15:25.388Z,15.10
2019-02-16T16:18:16.245Z,14.50
2019-02-16T16:21:02.608Z,15.00
2019-02-16T16:23:48.280Z,14.37
2019-02-16T16:26:34.489Z,14.33
2019-02-16T16:29:18.657Z,14.83
2019-02-16T16:32:25.716Z,13.90
2019-02-16T16:35:10.371Z,14.67
2019-02-16T16:37:44.317Z,13.47
2019-02-16T16:40:33.148Z,14.73
2019-02-16T16:43:26.052Z,13.50
2019-02-16T16:46:06.462Z,13.63
2019-02-16T16:48:52.172Z,14.90
2019-02-16T16:51:39.148Z,14.27
2019-02-16T16:54:11.561Z,14.27
2019-02-16T16:57:00.810Z,14.37
2019-02-16T16:59:49.767Z,14.07
2019-02-16T17:02:42.704Z,13.50
2019-02-16T17:05:42.518Z,14.60
2019-02-16T17:08:23.789Z,14.37
2019-02-16T17:11:22.499Z,14.20
2019-02-16T17:13:58.893Z,14.00
2019-02-16T17:16:37.203Z,14.03
2019-02-16T17:19:42.427Z,13.80
2019-02-16T17:22:27.905Z,15.53
2019-02-16T17:25:02.263Z,15.77
2019-02-16T17:27:55.329Z,14.40
2019-02-16T17:30:54.432Z,15.77
2019-02-16T17:33:30.555Z,16.17
2019-02-16T17:36:23.473Z,15.97
2019-02-16T17:39:11.059Z,14.77
2019-02-16T17:41:45.984Z,15.50
2019-02-16T17:44:47.554Z,15.00
2019-02-16T17:47:23.515Z,16.07
2019-02-16T17:50:08.990Z,16.17
2019-02-16T17:53:10.872Z,31.30
2019-02-16T17:55:45.692Z,32.60
2019-02-16T17:58:22.256Z,26.27
2019-02-16T18:00:56.432Z,24.30
2019-02-16T18:03:49.273Z,21.80
2019-02-16T18:06:36.889Z,20.23
2019-02-16T18:09:24.830Z,18.80
2019-02-16T18:12:27.244Z,18.83
2019-02-16T18:15:05.871Z,18.63
2019-02-16T18:17:49.498Z,18.57
2019-02-16T18:20:42.037Z,17.03
2019-02-16T18:23:26.406Z,18.33
2019-02-16T18:26:02.296Z,17.87
2019-02-16T18:28:57.025Z,18.47
2019-02-16T18:31:50.398Z,20.57
2019-02-16T18:34:36.441Z,24.17
2019-02-16T18:37:10.200Z,23.57
2019-02-16T18:39:48.286Z,23.73
2019-02-16T18:42:43.925Z,22.50
2019-02-16T18:45:24.897Z,19.30
2019-02-16T18:48:14.893Z,20.27
2019-02-16T18:50:57.167Z,19.67
2019-02-16T18:53:46.329Z,19.83
2019-02-16T18:56:35.827Z,19.90
2019-02-16T18:59:11.111Z,19.97
2019-02-16T19:02:01.266Z,19.00
2019-02-16T19:04:50.889Z,18.50
2019-02-16T19:07:34.280Z,18.53
2019-02-16T19:10:40.095Z,18.17
2019-02-16T19:13:15.381Z,18.57
2019-02-16T19:16:01.060Z,18.43
2019-02-16T19:18:40.778Z,18.20
2019-02-16T19:21:15.128Z,18.90
2019-02-16T19:23:47.637Z,20.30
2019-02-16T19:26:33.385Z,26.07
2019-02-16T19:29:36.169Z,23.23
2019-02-16T19:32:38.176Z,23.30
2019-02-16T19:35:37.338Z,21.97
2019-02-16T19:38:25.250Z,22.67
2019-02-16T19:41:02.649Z,21.30
2019-02-16T19:43:52.043Z,20.60
2019-02-16T19:46:43.258Z,21.73
2019-02-16T19:49:30.570Z,20.17
2019-02-16T19:52:06.120Z,18.57
2019-02-16T19:54:46.131Z,19.53
2019-02-16T19:57:31.142Z,19.10
2019-02-16T20:00:18.261Z,20.37
2019-02-16T20:02:55.576Z,19.23
2019-02-16T20:05:33.599Z,20.50
2019-02-16T20:08:11.467Z,24.20
2019-02-16T20:11:04.434Z,24.53
2019-02-16T20:14:01.972Z,21.97
2019-02-16T20:16:36.088Z,20.83
2019-02-16T20:19:29.156Z,22.27
2019-02-16T20:22:15.042Z,21.00
2019-02-16T20:24:51.457Z,20.93
2019-02-16T20:27:53.288Z,21.10
2019-02-16T20:30:43.687Z,24.03
2019-02-16T20:33:17.257Z,40.17
2019-02-16T20:35:55.719Z,41.57
2019-02-16T20:38:29.700Z,31.13
2019-02-16T20:41:22.245Z,26.43
2019-02-16T20:44:12.216Z,23.07
2019-02-16T20:47:14.035Z,20.30
2019-02-16T20:50:02.227Z,21.00
2019-02-16T20:52:37.446Z,21.33
2019-02-16T20:55:13.302Z,20.53
2019-02-16T20:58:15.255Z,21.07
2019-02-16T21:01:09.940Z,20.57
2019-02-16T21:03:56.552Z,20.93
2019-02-16T21:06:58.675Z,20.43
2019-02-16T21:09:48.009Z,20.33
2019-02-16T21:12:44.369Z,21.30
2019-02-16T21:15:26.773Z,21.67
2019-02-16T21:18:19.773Z,23.93
2019-02-16T21:21:15.761Z,22.97
2019-02-16T21:24:00.753Z,24.03
2019-02-16T21:26:50.850Z,24.30
2019-02-16T21:29:34.285Z,24.10
2019-02-16T21:32:11.427Z,23.00
2019-02-16T21:34:52.716Z,23.27
2019-02-16T21:37:42.795Z,23.40
2019-02-16T21:40:35.386Z,22.70
2019-02-16T21:43:21.363Z,21.33
2019-02-16T21:46:16.027Z,22.80
2019-02-16T21:48:53.221Z,20.47
2019-02-16T21:51:38.496Z,20.87
2019-02-16T21:54:20.568Z,20.50
2019-02-16T21:57:17.029Z,21.17
2019-02-16T22:00:02.820Z,20.37
2019-02-16T22:02:50.864Z,18.93
2019-02-16T22:05:40.363Z,20.50
2019-02-16T22:08:27.371Z,20.40
2019-02-16T22:11:02.593Z,20.43
2019-02-16T22:13:29.767Z,21.87
2019-02-16T22:15:57.231Z,21.10
2019-02-16T22:18:24.554Z,20.77
2019-02-16T22:20:51.923Z,21.87
2019-02-16T22:23:19.268Z,21.27
2019-02-16T22:25:46.461Z,22.87
2019-02-16T22:28:20.330Z,22.13
2019-02-16T22:30:43.912Z,22.20
2019-02-16T22:33:11.160Z,21.93
2019-02-16T22:35:38.535Z,22.63
2019-02-16T22:38:06.213Z,23.07
2019-02-16T22:40:33.831Z,22.97
2019-02-16T22:43:01.307Z,24.60
2019-02-16T22:45:28.689Z,23.57
2019-02-16T22:47:56.263Z,22.77
2019-02-16T22:50:23.236Z,22.03
2019-02-16T22:52:50.371Z,22.47
2019-02-16T22:55:19.400Z,22.13
2019-02-16T22:57:46.840Z,22.13
2019-02-16T23:00:26.792Z,24.13
2019-02-16T23:02:56.072Z,23.10
2019-02-16T23:05:23.456Z,25.00
2019-02-16T23:07:51.107Z,23.90
2019-02-16T23:10:18.588Z,23.23
2019-02-16T23:12:46.275Z,23.60
2019-02-16T23:15:13.525Z,24.87
2019-02-16T23:17:40.945Z,24.50
2019-02-16T23:20:08.693Z,25.30
2019-02-16T23:22:36.093Z,26.40
2019-02-16T23:25:03.698Z,23.63
2019-02-16T23:27:31.300Z,24.03
2019-02-16T23:29:58.989Z,25.53
2019-02-16T23:32:26.241Z,26.10
2019-02-16T23:34:53.605Z,26.23
2019-02-16T23:37:20.653Z,26.70
2019-02-16T23:39:48.578Z,26.10
2019-02-16T23:42:15.812Z,24.33
2019-02-16T23:44:43.501Z,25.47
2019-02-16T23:47:10.517Z,23.03
2019-02-16T23:49:38.087Z,23.57
2019-02-16T23:52:05.093Z,21.77
2019-02-16T23:54:32.114Z,23.43
2019-02-16T23:56:59.124Z,23.90
2019-02-16T23:59:26.283Z,24.20
